sensor_id;sensor_type;location;lat;lon;timestamp;temperature;humidity
14489;DHT22;7330;50.804;4.550;2022-10-16T00:00:17;15.20;99.90
14489;DHT22;7330;50.804;4.550;2022-10-16T00:02:44;15.20;99.90
14489;DHT22;7330;50.804;4.550;2022-10-16T00:05:11;15.20;99.90
14489;DHT22;7330;50.804;4.550;2022-10-16T00:07:38;15.20;99.90
14489;DHT22;7330;50.804;4.550;2022-10-16T00:10:05;15.10;99.90
14489;DHT22;7330;50.804;4.550;2022-10-16T00:12:31;15.20;99.90
14489;DHT22;7330;50.804;4.550;2022-10-16T00:15:00;15.10;99.90
14489;DHT22;7330;50.804;4.550;2022-10-16T00:19:53;15.10;99.90
14489;DHT22;7330;50.804;4.550;2022-10-16T00:29:41;15.10;99.90
14489;DHT22;7330;50.804;4.550;2022-10-16T00:37:03;15.00;99.90
14489;DHT22;7330;50.804;4.550;2022-10-16T00:44:44;15.00;99.90
14489;DHT22;7330;50.804;4.550;2022-10-16T00:47:13;15.00;99.90
14489;DHT22;7330;50.804;4.550;2022-10-16T00:49:42;15.00;99.90
14489;DHT22;7330;50.804;4.550;2022-10-16T00:54:37;14.90;99.90
14489;DHT22;7330;50.804;4.550;2022-10-16T00:57:04;14.90;99.90
14489;DHT22;7330;50.804;4.550;2022-10-16T00:59:33;14.90;99.90
14489;DHT22;7330;50.804;4.550;2022-10-16T01:04:27;14.90;99.90
14489;DHT22;7330;50.804;4.550;2022-10-16T01:11:55;14.80;99.90
14489;DHT22;7330;50.804;4.550;2022-10-16T01:21:46;14.80;99.90
14489;DHT22;7330;50.804;4.550;2022-10-16T01:26:45;14.70;99.90
14489;DHT22;7330;50.804;4.550;2022-10-16T01:34:13;14.70;99.90
14489;DHT22;7330;50.804;4.550;2022-10-16T01:39:08;14.70;99.90
14489;DHT22;7330;50.804;4.550;2022-10-16T01:41:36;14.70;99.90
14489;DHT22;7330;50.804;4.550;2022-10-16T01:46:31;14.70;99.90
14489;DHT22;7330;50.804;4.550;2022-10-16T01:51:27;14.70;99.90
14489;DHT22;7330;50.804;4.550;2022-10-16T01:56:22;14.70;99.90
14489;DHT22;7330;50.804;4.550;2022-10-16T02:01:18;14.70;99.90
14489;DHT22;7330;50.804;4.550;2022-10-16T02:03:45;14.60;99.90
14489;DHT22;7330;50.804;4.550;2022-10-16T02:13:38;14.70;99.90
14489;DHT22;7330;50.804;4.550;2022-10-16T02:16:06;14.70;99.90
14489;DHT22;7330;50.804;4.550;2022-10-16T02:23:29;14.60;99.90
14489;DHT22;7330;50.804;4.550;2022-10-16T02:25:57;14.70;99.90
14489;DHT22;7330;50.804;4.550;2022-10-16T02:30:54;14.70;99.90
14489;DHT22;7330;50.804;4.550;2022-10-16T02:33:22;14.70;99.90
14489;DHT22;7330;50.804;4.550;2022-10-16T02:35:50;14.60;99.90
14489;DHT22;7330;50.804;4.550;2022-10-16T02:43:11;14.60;99.90
14489;DHT22;7330;50.804;4.550;2022-10-16T02:45:38;14.60;99.90
14489;DHT22;7330;50.804;4.550;2022-10-16T02:48:06;14.60;99.90
14489;DHT22;7330;50.804;4.550;2022-10-16T02:50:33;14.60;99.90
14489;DHT22;7330;50.804;4.550;2022-10-16T02:55:30;14.60;99.90
14489;DHT22;7330;50.804;4.550;2022-10-16T02:57:57;14.60;99.90
14489;DHT22;7330;50.804;4.550;2022-10-16T03:00:23;14.60;99.90
14489;DHT22;7330;50.804;4.550;2022-10-16T03:12:39;14.60;99.90
14489;DHT22;7330;50.804;4.550;2022-10-16T03:15:07;14.60;99.90
14489;DHT22;7330;50.804;4.550;2022-10-16T03:22:27;14.60;99.90
14489;DHT22;7330;50.804;4.550;2022-10-16T03:27:21;14.60;99.90
14489;DHT22;7330;50.804;4.550;2022-10-16T03:32:16;14.60;99.90
14489;DHT22;7330;50.804;4.550;2022-10-16T03:39:37;14.50;99.90
14489;DHT22;7330;50.804;4.550;2022-10-16T03:42:04;14.50;99.90
14489;DHT22;7330;50.804;4.550;2022-10-16T03:49:26;14.50;99.90
14489;DHT22;7330;50.804;4.550;2022-10-16T03:51:53;14.50;99.90
14489;DHT22;7330;50.804;4.550;2022-10-16T03:54:19;14.60;99.90
14489;DHT22;7330;50.804;4.550;2022-10-16T03:59:14;14.60;99.90
14489;DHT22;7330;50.804;4.550;2022-10-16T04:04:08;14.60;99.90
14489;DHT22;7330;50.804;4.550;2022-10-16T04:06:36;14.60;99.90
14489;DHT22;7330;50.804;4.550;2022-10-16T04:09:02;14.60;99.90
14489;DHT22;7330;50.804;4.550;2022-10-16T04:11:29;14.50;99.90
14489;DHT22;7330;50.804;4.550;2022-10-16T04:16:23;14.60;99.90
14489;DHT22;7330;50.804;4.550;2022-10-16T04:18:49;14.60;99.90
14489;DHT22;7330;50.804;4.550;2022-10-16T04:26:12;14.60;99.90
14489;DHT22;7330;50.804;4.550;2022-10-16T04:28:38;14.60;99.90
14489;DHT22;7330;50.804;4.550;2022-10-16T04:31:05;14.50;99.90
14489;DHT22;7330;50.804;4.550;2022-10-16T04:33:32;14.50;99.90
14489;DHT22;7330;50.804;4.550;2022-10-16T04:35:59;14.60;99.90
14489;DHT22;7330;50.804;4.550;2022-10-16T04:40:52;14.60;99.90
14489;DHT22;7330;50.804;4.550;2022-10-16T04:48:17;14.60;99.90
14489;DHT22;7330;50.804;4.550;2022-10-16T04:50:44;14.60;99.90
14489;DHT22;7330;50.804;4.550;2022-10-16T04:53:10;14.60;99.90
14489;DHT22;7330;50.804;4.550;2022-10-16T04:55:37;14.60;99.90
14489;DHT22;7330;50.804;4.550;2022-10-16T05:00:30;14.60;99.90
14489;DHT22;7330;50.804;4.550;2022-10-16T05:02:57;14.60;99.90
14489;DHT22;7330;50.804;4.550;2022-10-16T05:07:54;14.50;99.90
14489;DHT22;7330;50.804;4.550;2022-10-16T05:15:15;14.60;99.90
14489;DHT22;7330;50.804;4.550;2022-10-16T05:17:41;14.50;99.90
14489;DHT22;7330;50.804;4.550;2022-10-16T05:22:35;14.60;99.90
14489;DHT22;7330;50.804;4.550;2022-10-16T05:25:03;14.50;99.90
14489;DHT22;7330;50.804;4.550;2022-10-16T05:27:30;14.50;99.90
14489;DHT22;7330;50.804;4.550;2022-10-16T05:29:57;14.50;99.90
14489;DHT22;7330;50.804;4.550;2022-10-16T05:32:23;14.60;99.90
14489;DHT22;7330;50.804;4.550;2022-10-16T05:34:50;14.60;99.90
14489;DHT22;7330;50.804;4.550;2022-10-16T05:39:44;14.50;99.90
14489;DHT22;7330;50.804;4.550;2022-10-16T05:44:39;14.50;99.90
14489;DHT22;7330;50.804;4.550;2022-10-16T05:49:32;14.50;99.90
14489;DHT22;7330;50.804;4.550;2022-10-16T05:51:59;14.50;99.90
14489;DHT22;7330;50.804;4.550;2022-10-16T05:56:53;14.50;99.90
14489;DHT22;7330;50.804;4.550;2022-10-16T06:09:09;14.40;99.90
14489;DHT22;7330;50.804;4.550;2022-10-16T06:11:36;14.50;99.90
14489;DHT22;7330;50.804;4.550;2022-10-16T06:14:03;14.40;99.90
14489;DHT22;7330;50.804;4.550;2022-10-16T06:16:32;14.40;99.90
14489;DHT22;7330;50.804;4.550;2022-10-16T06:18:58;14.40;99.90
14489;DHT22;7330;50.804;4.550;2022-10-16T06:23:52;14.40;99.90
14489;DHT22;7330;50.804;4.550;2022-10-16T06:33:42;14.40;99.90
14489;DHT22;7330;50.804;4.550;2022-10-16T06:36:09;14.40;99.90
14489;DHT22;7330;50.804;4.550;2022-10-16T06:38:36;14.40;99.90
14489;DHT22;7330;50.804;4.550;2022-10-16T06:43:30;14.40;99.90
14489;DHT22;7330;50.804;4.550;2022-10-16T06:45:58;14.40;99.90
14489;DHT22;7330;50.804;4.550;2022-10-16T06:50:57;14.50;99.90
14489;DHT22;7330;50.804;4.550;2022-10-16T06:55:51;14.60;99.90
14489;DHT22;7330;50.804;4.550;2022-10-16T06:58:18;14.70;99.90
14489;DHT22;7330;50.804;4.550;2022-10-16T07:00:45;14.90;99.90
14489;DHT22;7330;50.804;4.550;2022-10-16T07:03:11;15.00;99.90
14489;DHT22;7330;50.804;4.550;2022-10-16T07:05:38;15.20;99.90
14489;DHT22;7330;50.804;4.550;2022-10-16T07:08:06;15.40;99.90
14489;DHT22;7330;50.804;4.550;2022-10-16T07:13:00;15.70;99.90
14489;DHT22;7330;50.804;4.550;2022-10-16T07:15:27;15.90;99.90
14489;DHT22;7330;50.804;4.550;2022-10-16T07:25:16;16.50;99.90
14489;DHT22;7330;50.804;4.550;2022-10-16T07:30:09;16.60;99.90
14489;DHT22;7330;50.804;4.550;2022-10-16T07:32:36;16.70;99.90
14489;DHT22;7330;50.804;4.550;2022-10-16T07:35:03;16.70;99.90
14489;DHT22;7330;50.804;4.550;2022-10-16T07:37:33;16.70;99.90
14489;DHT22;7330;50.804;4.550;2022-10-16T07:42:28;16.80;99.90
14489;DHT22;7330;50.804;4.550;2022-10-16T07:47:22;16.80;99.90
14489;DHT22;7330;50.804;4.550;2022-10-16T07:52:15;17.00;99.90
14489;DHT22;7330;50.804;4.550;2022-10-16T07:54:42;17.10;99.90
14489;DHT22;7330;50.804;4.550;2022-10-16T08:02:04;17.50;99.90
14489;DHT22;7330;50.804;4.550;2022-10-16T08:04:31;17.70;99.90
14489;DHT22;7330;50.804;4.550;2022-10-16T08:06:57;17.90;99.90
14489;DHT22;7330;50.804;4.550;2022-10-16T08:09:24;18.10;99.90
14489;DHT22;7330;50.804;4.550;2022-10-16T08:14:18;18.60;99.90
14489;DHT22;7330;50.804;4.550;2022-10-16T08:26:35;19.50;99.90
14489;DHT22;7330;50.804;4.550;2022-10-16T08:29:02;19.70;99.90
14489;DHT22;7330;50.804;4.550;2022-10-16T08:31:28;19.90;99.90
14489;DHT22;7330;50.804;4.550;2022-10-16T08:51:07;20.80;99.90
14489;DHT22;7330;50.804;4.550;2022-10-16T08:53:36;20.80;99.90
14489;DHT22;7330;50.804;4.550;2022-10-16T08:56:04;20.80;99.90
14489;DHT22;7330;50.804;4.550;2022-10-16T08:58:31;20.90;99.90
14489;DHT22;7330;50.804;4.550;2022-10-16T09:00:58;21.00;99.90
14489;DHT22;7330;50.804;4.550;2022-10-16T09:03:33;21.00;99.90
14489;DHT22;7330;50.804;4.550;2022-10-16T09:06:23;20.90;99.90
14489;DHT22;7330;50.804;4.550;2022-10-16T09:08:57;20.90;99.90
14489;DHT22;7330;50.804;4.550;2022-10-16T09:13:55;20.80;99.90
14489;DHT22;7330;50.804;4.550;2022-10-16T09:18:54;20.80;99.90
14489;DHT22;7330;50.804;4.550;2022-10-16T09:21:25;21.00;99.90
14489;DHT22;7330;50.804;4.550;2022-10-16T09:23:53;21.10;99.90
14489;DHT22;7330;50.804;4.550;2022-10-16T09:26:20;21.10;99.90
14489;DHT22;7330;50.804;4.550;2022-10-16T09:31:17;21.40;99.90
14489;DHT22;7330;50.804;4.550;2022-10-16T09:33:45;21.50;99.90
14489;DHT22;7330;50.804;4.550;2022-10-16T09:36:14;21.60;99.90
14489;DHT22;7330;50.804;4.550;2022-10-16T09:41:15;21.60;99.90
14489;DHT22;7330;50.804;4.550;2022-10-16T09:43:46;21.70;99.90
14489;DHT22;7330;50.804;4.550;2022-10-16T09:48:43;21.90;99.90
14489;DHT22;7330;50.804;4.550;2022-10-16T09:51:16;22.00;99.90
14489;DHT22;7330;50.804;4.550;2022-10-16T09:58:49;22.20;99.90
14489;DHT22;7330;50.804;4.550;2022-10-16T10:01:16;22.20;99.90
14489;DHT22;7330;50.804;4.550;2022-10-16T10:03:43;22.20;99.90
14489;DHT22;7330;50.804;4.550;2022-10-16T10:06:17;22.30;99.90
14489;DHT22;7330;50.804;4.550;2022-10-16T10:08:58;22.30;99.70
14489;DHT22;7330;50.804;4.550;2022-10-16T10:14:21;22.30;98.90
14489;DHT22;7330;50.804;4.550;2022-10-16T10:21:42;22.40;99.30
14489;DHT22;7330;50.804;4.550;2022-10-16T10:24:10;22.40;99.10
14489;DHT22;7330;50.804;4.550;2022-10-16T10:31:34;22.40;98.40
14489;DHT22;7330;50.804;4.550;2022-10-16T10:36:32;22.40;97.90
14489;DHT22;7330;50.804;4.550;2022-10-16T10:39:01;22.30;98.00
14489;DHT22;7330;50.804;4.550;2022-10-16T10:43:59;22.40;97.90
14489;DHT22;7330;50.804;4.550;2022-10-16T10:49:01;22.20;97.20
14489;DHT22;7330;50.804;4.550;2022-10-16T10:51:34;22.30;98.20
14489;DHT22;7330;50.804;4.550;2022-10-16T10:56:39;22.40;97.90
14489;DHT22;7330;50.804;4.550;2022-10-16T10:59:21;22.30;97.20
14489;DHT22;7330;50.804;4.550;2022-10-16T11:14:11;22.30;96.40
14489;DHT22;7330;50.804;4.550;2022-10-16T11:19:10;22.20;96.40
14489;DHT22;7330;50.804;4.550;2022-10-16T11:26:33;22.00;96.30
14489;DHT22;7330;50.804;4.550;2022-10-16T11:33:59;21.90;96.20
14489;DHT22;7330;50.804;4.550;2022-10-16T11:36:29;21.90;96.70
14489;DHT22;7330;50.804;4.550;2022-10-16T11:39:00;21.80;96.80
14489;DHT22;7330;50.804;4.550;2022-10-16T11:44:06;21.70;96.70
14489;DHT22;7330;50.804;4.550;2022-10-16T11:46:36;21.60;96.70
14489;DHT22;7330;50.804;4.550;2022-10-16T11:49:08;21.60;97.60
14489;DHT22;7330;50.804;4.550;2022-10-16T11:56:37;21.50;97.00
14489;DHT22;7330;50.804;4.550;2022-10-16T11:59:07;21.40;97.20
14489;DHT22;7330;50.804;4.550;2022-10-16T12:01:38;21.40;97.60
14489;DHT22;7330;50.804;4.550;2022-10-16T12:04:14;21.40;97.60
14489;DHT22;7330;50.804;4.550;2022-10-16T12:06:42;21.40;97.80
14489;DHT22;7330;50.804;4.550;2022-10-16T12:09:13;21.40;97.90
14489;DHT22;7330;50.804;4.550;2022-10-16T12:11:41;21.40;97.70
14489;DHT22;7330;50.804;4.550;2022-10-16T12:14:19;21.40;97.90
14489;DHT22;7330;50.804;4.550;2022-10-16T12:16:53;21.40;97.80
14489;DHT22;7330;50.804;4.550;2022-10-16T12:19:22;21.40;97.80
14489;DHT22;7330;50.804;4.550;2022-10-16T12:29:36;21.50;97.40
14489;DHT22;7330;50.804;4.550;2022-10-16T12:34:36;21.50;97.20
14489;DHT22;7330;50.804;4.550;2022-10-16T12:37:08;21.50;97.40
14489;DHT22;7330;50.804;4.550;2022-10-16T12:39:35;21.50;97.40
14489;DHT22;7330;50.804;4.550;2022-10-16T12:42:03;21.50;97.30
14489;DHT22;7330;50.804;4.550;2022-10-16T12:44:34;21.50;97.00
14489;DHT22;7330;50.804;4.550;2022-10-16T12:47:01;21.50;97.30
14489;DHT22;7330;50.804;4.550;2022-10-16T12:49:31;21.50;97.60
14489;DHT22;7330;50.804;4.550;2022-10-16T12:52:00;21.50;97.90
14489;DHT22;7330;50.804;4.550;2022-10-16T12:54:27;21.50;97.50
14489;DHT22;7330;50.804;4.550;2022-10-16T12:56:59;21.50;97.70
14489;DHT22;7330;50.804;4.550;2022-10-16T12:59:31;21.40;97.60
14489;DHT22;7330;50.804;4.550;2022-10-16T13:02:06;21.40;97.40
14489;DHT22;7330;50.804;4.550;2022-10-16T13:04:41;21.40;97.10
14489;DHT22;7330;50.804;4.550;2022-10-16T13:07:21;21.40;97.20
14489;DHT22;7330;50.804;4.550;2022-10-16T13:09:55;21.40;97.50
14489;DHT22;7330;50.804;4.550;2022-10-16T13:12:33;21.40;97.20
14489;DHT22;7330;50.804;4.550;2022-10-16T13:15:07;21.40;97.20
14489;DHT22;7330;50.804;4.550;2022-10-16T13:17:37;21.40;97.40
14489;DHT22;7330;50.804;4.550;2022-10-16T13:20:10;21.40;97.20
14489;DHT22;7330;50.804;4.550;2022-10-16T13:22:41;21.30;97.10
14489;DHT22;7330;50.804;4.550;2022-10-16T13:25:16;21.50;97.30
14489;DHT22;7330;50.804;4.550;2022-10-16T13:30:12;21.50;97.20
14489;DHT22;7330;50.804;4.550;2022-10-16T13:32:40;21.50;96.90
14489;DHT22;7330;50.804;4.550;2022-10-16T13:41:18;21.40;96.70
14489;DHT22;7330;50.804;4.550;2022-10-16T13:43:45;21.50;96.70
14489;DHT22;7330;50.804;4.550;2022-10-16T13:46:14;21.50;96.70
14489;DHT22;7330;50.804;4.550;2022-10-16T13:48:41;21.40;96.40
14489;DHT22;7330;50.804;4.550;2022-10-16T13:51:11;21.40;96.20
14489;DHT22;7330;50.804;4.550;2022-10-16T13:53:38;21.40;96.10
14489;DHT22;7330;50.804;4.550;2022-10-16T13:56:07;21.40;96.10
14489;DHT22;7330;50.804;4.550;2022-10-16T13:58:36;21.40;96.00
14489;DHT22;7330;50.804;4.550;2022-10-16T14:01:03;21.40;96.30
14489;DHT22;7330;50.804;4.550;2022-10-16T14:03:31;21.40;96.50
14489;DHT22;7330;50.804;4.550;2022-10-16T14:05:59;21.30;96.60
14489;DHT22;7330;50.804;4.550;2022-10-16T14:08:27;21.30;96.60
14489;DHT22;7330;50.804;4.550;2022-10-16T14:10:56;21.30;96.40
14489;DHT22;7330;50.804;4.550;2022-10-16T14:13:26;21.30;96.40
14489;DHT22;7330;50.804;4.550;2022-10-16T14:15:56;21.30;96.30
14489;DHT22;7330;50.804;4.550;2022-10-16T14:18:25;21.20;95.70
14489;DHT22;7330;50.804;4.550;2022-10-16T14:20:52;21.20;95.50
14489;DHT22;7330;50.804;4.550;2022-10-16T14:23:20;21.20;95.50
14489;DHT22;7330;50.804;4.550;2022-10-16T14:25:47;21.20;95.60
14489;DHT22;7330;50.804;4.550;2022-10-16T14:30:48;21.20;95.60
14489;DHT22;7330;50.804;4.550;2022-10-16T14:33:21;21.20;95.60
14489;DHT22;7330;50.804;4.550;2022-10-16T14:35:57;21.20;95.80
14489;DHT22;7330;50.804;4.550;2022-10-16T14:38:25;21.20;95.90
14489;DHT22;7330;50.804;4.550;2022-10-16T14:40:52;21.20;96.00
14489;DHT22;7330;50.804;4.550;2022-10-16T14:43:20;21.20;96.00
14489;DHT22;7330;50.804;4.550;2022-10-16T14:48:14;21.20;96.20
14489;DHT22;7330;50.804;4.550;2022-10-16T14:50:47;21.20;96.20
14489;DHT22;7330;50.804;4.550;2022-10-16T14:53:14;21.20;96.30
14489;DHT22;7330;50.804;4.550;2022-10-16T14:58:09;21.20;96.30
14489;DHT22;7330;50.804;4.550;2022-10-16T15:00:40;21.20;96.40
14489;DHT22;7330;50.804;4.550;2022-10-16T15:03:07;21.20;96.30
14489;DHT22;7330;50.804;4.550;2022-10-16T15:05:34;21.10;96.20
14489;DHT22;7330;50.804;4.550;2022-10-16T15:10:29;21.20;96.20
14489;DHT22;7330;50.804;4.550;2022-10-16T15:20:20;21.10;97.00
14489;DHT22;7330;50.804;4.550;2022-10-16T15:22:47;21.10;97.20
14489;DHT22;7330;50.804;4.550;2022-10-16T15:25:26;21.10;97.20
14489;DHT22;7330;50.804;4.550;2022-10-16T15:27:55;21.10;97.30
14489;DHT22;7330;50.804;4.550;2022-10-16T15:30:22;21.10;97.30
14489;DHT22;7330;50.804;4.550;2022-10-16T15:35:15;21.10;97.40
14489;DHT22;7330;50.804;4.550;2022-10-16T15:37:42;21.00;97.50
14489;DHT22;7330;50.804;4.550;2022-10-16T15:40:09;20.90;97.40
14489;DHT22;7330;50.804;4.550;2022-10-16T15:42:36;21.00;97.50
14489;DHT22;7330;50.804;4.550;2022-10-16T15:47:32;20.90;97.80
14489;DHT22;7330;50.804;4.550;2022-10-16T15:49:59;20.90;98.00
14489;DHT22;7330;50.804;4.550;2022-10-16T15:52:26;20.90;98.30
14489;DHT22;7330;50.804;4.550;2022-10-16T15:57:21;20.90;98.20
14489;DHT22;7330;50.804;4.550;2022-10-16T16:02:16;20.90;98.60
14489;DHT22;7330;50.804;4.550;2022-10-16T16:04:44;20.80;98.90
14489;DHT22;7330;50.804;4.550;2022-10-16T16:09:38;20.80;99.10
14489;DHT22;7330;50.804;4.550;2022-10-16T16:12:05;20.70;99.20
14489;DHT22;7330;50.804;4.550;2022-10-16T16:14:32;20.70;99.30
14489;DHT22;7330;50.804;4.550;2022-10-16T16:16:58;20.70;99.50
14489;DHT22;7330;50.804;4.550;2022-10-16T16:21:54;20.60;99.70
14489;DHT22;7330;50.804;4.550;2022-10-16T16:24:20;20.60;99.80
14489;DHT22;7330;50.804;4.550;2022-10-16T16:26:47;20.60;99.90
14489;DHT22;7330;50.804;4.550;2022-10-16T16:31:41;20.40;99.90
14489;DHT22;7330;50.804;4.550;2022-10-16T16:36:36;20.30;99.90
14489;DHT22;7330;50.804;4.550;2022-10-16T16:41:32;20.20;99.90
14489;DHT22;7330;50.804;4.550;2022-10-16T16:46:26;20.10;99.90
14489;DHT22;7330;50.804;4.550;2022-10-16T16:48:53;20.10;99.90
14489;DHT22;7330;50.804;4.550;2022-10-16T16:53:48;20.00;99.90
14489;DHT22;7330;50.804;4.550;2022-10-16T16:56:15;20.00;99.90
14489;DHT22;7330;50.804;4.550;2022-10-16T16:58:46;20.00;99.90
14489;DHT22;7330;50.804;4.550;2022-10-16T17:01:12;19.90;99.90
14489;DHT22;7330;50.804;4.550;2022-10-16T17:03:41;19.90;99.90
14489;DHT22;7330;50.804;4.550;2022-10-16T17:06:09;19.80;99.90
14489;DHT22;7330;50.804;4.550;2022-10-16T17:08:36;19.80;99.90
14489;DHT22;7330;50.804;4.550;2022-10-16T17:11:03;19.70;99.90
14489;DHT22;7330;50.804;4.550;2022-10-16T17:16:01;19.70;99.90
14489;DHT22;7330;50.804;4.550;2022-10-16T17:18:28;19.70;99.90
14489;DHT22;7330;50.804;4.550;2022-10-16T17:20:54;19.70;99.90
14489;DHT22;7330;50.804;4.550;2022-10-16T17:23:24;19.60;99.90
14489;DHT22;7330;50.804;4.550;2022-10-16T17:25:52;19.60;99.90
14489;DHT22;7330;50.804;4.550;2022-10-16T17:28:19;19.60;99.90
14489;DHT22;7330;50.804;4.550;2022-10-16T17:30:46;19.60;99.90
14489;DHT22;7330;50.804;4.550;2022-10-16T17:33:14;19.50;99.90
14489;DHT22;7330;50.804;4.550;2022-10-16T17:35:41;19.50;99.90
14489;DHT22;7330;50.804;4.550;2022-10-16T17:38:08;19.40;99.90
14489;DHT22;7330;50.804;4.550;2022-10-16T17:40:35;19.40;99.90
14489;DHT22;7330;50.804;4.550;2022-10-16T17:43:02;19.40;99.90
14489;DHT22;7330;50.804;4.550;2022-10-16T17:45:28;19.40;99.90
14489;DHT22;7330;50.804;4.550;2022-10-16T17:47:57;19.40;99.90
14489;DHT22;7330;50.804;4.550;2022-10-16T17:50:25;19.40;99.90
14489;DHT22;7330;50.804;4.550;2022-10-16T17:52:52;19.40;99.90
14489;DHT22;7330;50.804;4.550;2022-10-16T17:55:19;19.30;99.90
14489;DHT22;7330;50.804;4.550;2022-10-16T17:57:46;19.30;99.90
14489;DHT22;7330;50.804;4.550;2022-10-16T18:00:12;19.30;99.90
14489;DHT22;7330;50.804;4.550;2022-10-16T18:05:07;19.20;99.90
14489;DHT22;7330;50.804;4.550;2022-10-16T18:07:37;19.20;99.90
14489;DHT22;7330;50.804;4.550;2022-10-16T18:10:04;19.20;99.90
14489;DHT22;7330;50.804;4.550;2022-10-16T18:12:33;19.10;99.90
14489;DHT22;7330;50.804;4.550;2022-10-16T18:15:00;19.20;99.90
14489;DHT22;7330;50.804;4.550;2022-10-16T18:17:27;19.10;99.90
14489;DHT22;7330;50.804;4.550;2022-10-16T18:27:18;19.00;99.90
14489;DHT22;7330;50.804;4.550;2022-10-16T18:32:48;19.00;99.90
14489;DHT22;7330;50.804;4.550;2022-10-16T18:35:15;18.90;99.90
14489;DHT22;7330;50.804;4.550;2022-10-16T18:37:42;18.90;99.90
14489;DHT22;7330;50.804;4.550;2022-10-16T18:40:09;18.90;99.90
14489;DHT22;7330;50.804;4.550;2022-10-16T18:42:37;18.90;99.90
14489;DHT22;7330;50.804;4.550;2022-10-16T18:45:04;18.80;99.90
14489;DHT22;7330;50.804;4.550;2022-10-16T18:47:31;18.80;99.90
14489;DHT22;7330;50.804;4.550;2022-10-16T18:49:58;18.70;99.90
14489;DHT22;7330;50.804;4.550;2022-10-16T18:54:54;18.60;99.90
14489;DHT22;7330;50.804;4.550;2022-10-16T18:57:21;18.60;99.90
14489;DHT22;7330;50.804;4.550;2022-10-16T18:59:49;18.60;99.90
14489;DHT22;7330;50.804;4.550;2022-10-16T19:02:15;18.50;99.90
14489;DHT22;7330;50.804;4.550;2022-10-16T19:04:45;18.60;99.90
14489;DHT22;7330;50.804;4.550;2022-10-16T19:07:12;18.60;99.90
14489;DHT22;7330;50.804;4.550;2022-10-16T19:09:40;18.60;99.90
14489;DHT22;7330;50.804;4.550;2022-10-16T19:12:07;18.60;99.90
14489;DHT22;7330;50.804;4.550;2022-10-16T19:17:02;18.60;99.90
14489;DHT22;7330;50.804;4.550;2022-10-16T19:19:29;18.50;99.90
14489;DHT22;7330;50.804;4.550;2022-10-16T19:21:56;18.50;99.90
14489;DHT22;7330;50.804;4.550;2022-10-16T19:24:36;18.50;99.90
14489;DHT22;7330;50.804;4.550;2022-10-16T19:27:03;18.50;99.90
14489;DHT22;7330;50.804;4.550;2022-10-16T19:29:29;18.40;99.90
14489;DHT22;7330;50.804;4.550;2022-10-16T19:31:57;18.30;99.90
14489;DHT22;7330;50.804;4.550;2022-10-16T19:34:27;18.20;99.90
14489;DHT22;7330;50.804;4.550;2022-10-16T19:36:54;18.20;99.90
14489;DHT22;7330;50.804;4.550;2022-10-16T19:44:17;18.20;99.90
14489;DHT22;7330;50.804;4.550;2022-10-16T19:46:43;18.10;99.90
14489;DHT22;7330;50.804;4.550;2022-10-16T19:49:12;18.20;99.90
14489;DHT22;7330;50.804;4.550;2022-10-16T19:51:44;18.10;99.90
14489;DHT22;7330;50.804;4.550;2022-10-16T19:54:11;18.10;99.90
14489;DHT22;7330;50.804;4.550;2022-10-16T19:56:39;18.10;99.90
14489;DHT22;7330;50.804;4.550;2022-10-16T19:59:06;18.10;99.90
14489;DHT22;7330;50.804;4.550;2022-10-16T20:01:35;18.00;99.90
14489;DHT22;7330;50.804;4.550;2022-10-16T20:08:57;18.00;99.90
14489;DHT22;7330;50.804;4.550;2022-10-16T20:11:25;17.90;99.90
14489;DHT22;7330;50.804;4.550;2022-10-16T20:13:52;17.90;99.90
14489;DHT22;7330;50.804;4.550;2022-10-16T20:18:46;17.90;99.90
14489;DHT22;7330;50.804;4.550;2022-10-16T20:21:14;17.90;99.90
14489;DHT22;7330;50.804;4.550;2022-10-16T20:23:42;17.90;99.90
14489;DHT22;7330;50.804;4.550;2022-10-16T20:26:10;17.80;99.90
14489;DHT22;7330;50.804;4.550;2022-10-16T20:28:38;17.90;99.90
14489;DHT22;7330;50.804;4.550;2022-10-16T20:31:05;17.80;99.90
14489;DHT22;7330;50.804;4.550;2022-10-16T20:33:33;17.80;99.90
14489;DHT22;7330;50.804;4.550;2022-10-16T20:36:00;17.80;99.90
14489;DHT22;7330;50.804;4.550;2022-10-16T20:38:26;17.80;99.90
14489;DHT22;7330;50.804;4.550;2022-10-16T20:43:21;17.70;99.90
14489;DHT22;7330;50.804;4.550;2022-10-16T20:45:57;17.70;99.90
14489;DHT22;7330;50.804;4.550;2022-10-16T20:48:24;17.70;99.90
14489;DHT22;7330;50.804;4.550;2022-10-16T20:50:50;17.60;99.90
14489;DHT22;7330;50.804;4.550;2022-10-16T20:55:44;17.60;99.90
14489;DHT22;7330;50.804;4.550;2022-10-16T20:58:11;17.60;99.90
14489;DHT22;7330;50.804;4.550;2022-10-16T21:03:07;17.50;99.90
14489;DHT22;7330;50.804;4.550;2022-10-16T21:05:38;17.50;99.90
14489;DHT22;7330;50.804;4.550;2022-10-16T21:08:05;17.40;99.90
14489;DHT22;7330;50.804;4.550;2022-10-16T21:10:32;17.40;99.90
14489;DHT22;7330;50.804;4.550;2022-10-16T21:12:58;17.40;99.90
14489;DHT22;7330;50.804;4.550;2022-10-16T21:17:52;17.40;99.90
14489;DHT22;7330;50.804;4.550;2022-10-16T21:20:20;17.30;99.90
14489;DHT22;7330;50.804;4.550;2022-10-16T21:22:47;17.30;99.90
14489;DHT22;7330;50.804;4.550;2022-10-16T21:25:14;17.30;99.90
14489;DHT22;7330;50.804;4.550;2022-10-16T21:27:41;17.30;99.90
14489;DHT22;7330;50.804;4.550;2022-10-16T21:30:08;17.20;99.90
14489;DHT22;7330;50.804;4.550;2022-10-16T21:32:35;17.30;99.90
14489;DHT22;7330;50.804;4.550;2022-10-16T21:35:02;17.20;99.90
14489;DHT22;7330;50.804;4.550;2022-10-16T21:39:57;17.20;99.90
14489;DHT22;7330;50.804;4.550;2022-10-16T21:42:24;17.20;99.90
14489;DHT22;7330;50.804;4.550;2022-10-16T21:44:51;17.20;99.90
14489;DHT22;7330;50.804;4.550;2022-10-16T21:47:18;17.20;99.90
14489;DHT22;7330;50.804;4.550;2022-10-16T21:49:44;17.10;99.90
14489;DHT22;7330;50.804;4.550;2022-10-16T21:52:11;17.10;99.90
14489;DHT22;7330;50.804;4.550;2022-10-16T21:54:38;17.10;99.90
14489;DHT22;7330;50.804;4.550;2022-10-16T21:57:06;17.10;99.90
14489;DHT22;7330;50.804;4.550;2022-10-16T22:02:00;17.10;99.90
14489;DHT22;7330;50.804;4.550;2022-10-16T22:04:27;17.00;99.90
14489;DHT22;7330;50.804;4.550;2022-10-16T22:06:54;17.00;99.90
14489;DHT22;7330;50.804;4.550;2022-10-16T22:09:20;17.00;99.90
14489;DHT22;7330;50.804;4.550;2022-10-16T22:11:47;17.00;99.90
14489;DHT22;7330;50.804;4.550;2022-10-16T22:14:17;17.00;99.90
14489;DHT22;7330;50.804;4.550;2022-10-16T22:16:44;17.00;99.90
14489;DHT22;7330;50.804;4.550;2022-10-16T22:19:12;17.00;99.90
14489;DHT22;7330;50.804;4.550;2022-10-16T22:24:06;16.90;99.90
14489;DHT22;7330;50.804;4.550;2022-10-16T22:26:33;16.90;99.90
14489;DHT22;7330;50.804;4.550;2022-10-16T22:29:00;16.90;99.90
14489;DHT22;7330;50.804;4.550;2022-10-16T22:31:29;16.80;99.90
14489;DHT22;7330;50.804;4.550;2022-10-16T22:33:56;16.90;99.90
14489;DHT22;7330;50.804;4.550;2022-10-16T22:41:17;16.80;99.90
14489;DHT22;7330;50.804;4.550;2022-10-16T22:43:45;16.80;99.90
14489;DHT22;7330;50.804;4.550;2022-10-16T22:46:13;16.80;99.90
14489;DHT22;7330;50.804;4.550;2022-10-16T22:48:41;16.70;99.90
14489;DHT22;7330;50.804;4.550;2022-10-16T22:51:09;16.70;99.90